Time;durP1;ratioP1;P1;durP2;ratioP2;P2;SDS_P1;SDS_P2;PMS_P1;PMS_P2;Temp;Humidity;BMP_temperature;BMP_pressure;BME280_temperature;BME280_humidity;BME280_pressure;Samples;Min_cycle;Max_cycle;Signal;HPM_P1;HPM_P2
2021/04/17 00:01:44;;;;;;;9.18;3.65;;;7.50;99.90;;;;;;5112965;28;20174;-76
2021/04/17 00:04:11;;;;;;;5.55;3.08;;;7.50;99.90;;;;;;5114151;28;20251;-76
2021/04/17 00:06:37;;;;;;;6.97;3.78;;;7.50;99.90;;;;;;5113013;28;20180;-76
2021/04/17 00:09:06;;;;;;;7.40;3.58;;;7.50;99.90;;;;;;5112866;28;20619;-76
2021/04/17 00:11:33;;;;;;;9.85;3.00;;;7.50;99.90;;;;;;5114053;28;20168;-76
2021/04/17 00:13:58;;;;;;;8.45;3.30;;;7.50;99.90;;;;;;5113698;28;20594;-76
2021/04/17 00:16:24;;;;;;;5.32;3.20;;;7.30;99.90;;;;;;5114200;28;20169;-76
2021/04/17 00:18:50;;;;;;;11.17;3.53;;;7.10;99.90;;;;;;5112624;28;20180;-76
2021/04/17 00:21:15;;;;;;;12.70;3.10;;;6.90;99.90;;;;;;5114139;28;20226;-77
2021/04/17 00:23:41;;;;;;;5.97;3.13;;;6.90;99.90;;;;;;5112813;28;20230;-78
2021/04/17 00:26:07;;;;;;;9.90;3.30;;;7.00;99.90;;;;;;5113843;28;20260;-78
2021/04/17 00:28:32;;;;;;;6.88;3.17;;;7.10;99.90;;;;;;5112409;28;20222;-78
2021/04/17 00:30:58;;;;;;;5.13;3.13;;;7.00;99.90;;;;;;5113883;28;20181;-78
2021/04/17 00:33:23;;;;;;;5.05;3.35;;;7.00;99.90;;;;;;5111953;28;20207;-78
2021/04/17 00:35:49;;;;;;;6.95;3.25;;;7.10;99.90;;;;;;5115127;28;20165;-78
2021/04/17 00:38:15;;;;;;;5.05;3.50;;;7.10;99.90;;;;;;5117950;28;20181;-77
2021/04/17 00:40:41;;;;;;;8.35;3.72;;;7.10;99.90;;;;;;5116962;28;20177;-78
2021/04/17 00:43:06;;;;;;;6.03;3.40;;;7.00;99.90;;;;;;5118060;28;20205;-78
2021/04/17 00:45:33;;;;;;;6.23;3.60;;;7.00;99.90;;;;;;5118147;28;20162;-77
2021/04/17 00:47:58;;;;;;;9.33;3.63;;;7.10;99.90;;;;;;5117847;28;20174;-78
2021/04/17 00:50:25;;;;;;;5.47;3.33;;;7.10;99.90;;;;;;5099611;28;20645;-79
2021/04/17 00:52:52;;;;;;;8.00;3.67;;;7.10;99.90;;;;;;5099432;28;20262;-78
2021/04/17 00:55:18;;;;;;;6.37;3.43;;;7.00;99.90;;;;;;5116639;28;20570;-78
2021/04/17 00:57:43;;;;;;;6.67;3.67;;;7.00;99.90;;;;;;5099148;28;20173;-78
2021/04/17 01:00:10;;;;;;;6.03;3.80;;;7.00;99.90;;;;;;5116754;28;20173;-78
2021/04/17 01:02:40;;;;;;;4.87;3.10;;;7.00;99.90;;;;;;5116098;28;20218;-79
2021/04/17 01:05:08;;;;;;;5.40;3.57;;;7.00;99.90;;;;;;5117566;28;20150;-77
2021/04/17 01:07:40;;;;;;;4.13;3.40;;;7.00;99.90;;;;;;5117341;28;20253;-77
2021/04/17 01:10:30;;;;;;;5.97;3.40;;;6.90;99.90;;;;;;5117600;28;20158;-78
2021/04/17 01:12:57;;;;;;;5.50;3.53;;;6.90;99.90;;;;;;5116246;28;20232;-78
2021/04/17 01:15:24;;;;;;;6.27;3.57;;;6.90;99.90;;;;;;5117249;28;20188;-78
2021/04/17 01:17:52;;;;;;;13.23;3.70;;;6.90;99.90;;;;;;5116234;28;20180;-78
2021/04/17 01:20:34;;;;;;;10.57;3.63;;;6.90;99.90;;;;;;5117274;28;20249;-78
2021/04/17 01:23:21;;;;;;;4.90;3.37;;;6.90;99.90;;;;;;5096847;28;20158;-78
2021/04/17 01:25:57;;;;;;;7.83;3.63;;;6.80;99.90;;;;;;5106869;28;20196;-78
2021/04/17 01:28:24;;;;;;;4.10;3.65;;;6.80;99.90;;;;;;5116988;28;20569;-78
2021/04/17 01:30:56;;;;;;;8.47;3.70;;;6.90;99.90;;;;;;5117077;28;20177;-78
2021/04/17 01:33:27;;;;;;;9.60;3.90;;;7.00;99.90;;;;;;5116890;28;20830;-78
2021/04/17 01:35:53;;;;;;;6.33;4.03;;;6.90;99.90;;;;;;5116955;28;20189;-77
2021/04/17 01:38:34;;;;;;;5.93;3.80;;;6.90;99.90;;;;;;5115450;28;20564;-77
2021/04/17 01:41:03;;;;;;;7.60;4.10;;;6.80;99.90;;;;;;5116868;28;20167;-78
2021/04/17 01:43:31;;;;;;;10.00;3.73;;;6.80;99.90;;;;;;5116918;28;20173;-78
2021/04/17 01:46:03;;;;;;;7.40;4.23;;;6.70;99.90;;;;;;5114827;28;20182;-77
2021/04/17 01:48:29;;;;;;;4.90;3.90;;;6.70;99.90;;;;;;5116258;28;20609;-78
2021/04/17 01:50:57;;;;;;;7.20;3.87;;;6.70;99.90;;;;;;5116920;28;20190;-78
2021/04/17 01:53:27;;;;;;;5.87;3.90;;;6.80;99.90;;;;;;5115230;28;20197;-78
2021/04/17 01:55:54;;;;;;;6.17;4.13;;;6.80;99.90;;;;;;5115261;28;20162;-78
2021/04/17 01:58:26;;;;;;;7.23;4.30;;;6.70;99.90;;;;;;5116707;28;20166;-78
2021/04/17 02:00:54;;;;;;;5.90;4.50;;;6.70;99.90;;;;;;5116759;28;20178;-77
2021/04/17 02:03:45;;;;;;;9.33;3.80;;;6.70;99.90;;;;;;5115143;28;20174;-78
2021/04/17 02:06:10;;;;;;;9.13;4.83;;;6.70;99.90;;;;;;5114963;28;20173;-78
2021/04/17 02:08:37;;;;;;;6.53;4.27;;;6.60;99.90;;;;;;5115216;28;20162;-78
2021/04/17 02:11:03;;;;;;;6.20;4.07;;;6.60;99.90;;;;;;5114834;28;20166;-79
2021/04/17 02:13:29;;;;;;;8.17;4.23;;;6.60;99.90;;;;;;5114811;28;20215;-78
2021/04/17 02:16:00;;;;;;;6.23;4.73;;;6.50;99.90;;;;;;5114964;28;20173;-78
2021/04/17 02:18:33;;;;;;;9.17;4.77;;;6.50;99.90;;;;;;5116088;28;20189;-78
2021/04/17 02:21:08;;;;;;;12.07;5.17;;;6.50;99.90;;;;;;5114982;28;20193;-78
2021/04/17 02:23:34;;;;;;;7.07;4.60;;;6.50;99.90;;;;;;5114975;28;20570;-78
2021/04/17 02:26:01;;;;;;;13.90;4.60;;;6.50;99.90;;;;;;5114659;28;20176;-78
2021/04/17 02:28:28;;;;;;;6.23;4.70;;;6.50;99.90;;;;;;5115015;28;20176;-78
2021/04/17 02:30:55;;;;;;;9.77;4.83;;;6.60;99.90;;;;;;5116104;28;20571;-78
2021/04/17 02:33:22;;;;;;;6.60;4.30;;;6.60;99.90;;;;;;5114399;28;20209;-78
2021/04/17 02:35:47;;;;;;;12.73;5.37;;;6.70;99.90;;;;;;5115554;28;20197;-77
2021/04/17 02:38:15;;;;;;;10.13;5.00;;;6.70;99.90;;;;;;5115832;28;20562;-78
2021/04/17 02:40:41;;;;;;;7.50;4.90;;;6.70;99.90;;;;;;5112225;27;20216;-78
2021/04/17 02:43:06;;;;;;;6.10;5.00;;;6.70;99.90;;;;;;5135335;27;20176;-78
2021/04/17 02:45:33;;;;;;;5.30;4.80;;;6.70;99.90;;;;;;5135082;27;20217;-78
2021/04/17 02:47:59;;;;;;;7.77;4.67;;;6.60;99.90;;;;;;5116232;27;20181;-78
2021/04/17 02:50:25;;;;;;;9.40;4.40;;;6.60;99.90;;;;;;5114442;28;20327;-78
2021/04/17 02:52:51;;;;;;;10.47;5.07;;;6.60;99.90;;;;;;5114239;28;20201;-78
2021/04/17 02:55:18;;;;;;;12.63;5.50;;;6.50;99.90;;;;;;5114242;28;20181;-78
2021/04/17 02:57:44;;;;;;;10.67;5.87;;;6.50;99.90;;;;;;5115195;28;20180;-78
2021/04/17 03:00:14;;;;;;;8.90;4.73;;;6.50;99.90;;;;;;5113305;28;20176;-78
2021/04/17 03:02:40;;;;;;;9.93;5.17;;;6.40;99.90;;;;;;5113648;28;20287;-79
2021/04/17 03:05:07;;;;;;;12.33;5.47;;;6.30;99.90;;;;;;5115433;28;20193;-78
2021/04/17 03:07:33;;;;;;;11.30;5.13;;;6.30;99.90;;;;;;5114730;28;20169;-78
2021/04/17 03:09:59;;;;;;;8.07;5.27;;;6.30;99.90;;;;;;5093411;28;20175;-78
2021/04/17 03:12:24;;;;;;;10.70;5.43;;;6.30;99.90;;;;;;5110537;28;20324;-78
2021/04/17 03:14:50;;;;;;;9.17;5.17;;;6.40;99.90;;;;;;5094868;28;20174;-78
2021/04/17 03:17:16;;;;;;;16.97;5.70;;;6.30;99.90;;;;;;5101755;28;20173;-78
2021/04/17 03:19:42;;;;;;;7.60;5.30;;;6.30;99.90;;;;;;5113587;28;20170;-79
2021/04/17 03:22:08;;;;;;;14.20;6.53;;;6.30;99.90;;;;;;5115063;28;20257;-78
2021/04/17 03:24:36;;;;;;;12.27;5.33;;;6.20;99.90;;;;;;5113567;28;20560;-78
2021/04/17 03:27:03;;;;;;;12.90;6.00;;;6.20;99.90;;;;;;5114414;28;20614;-78
2021/04/17 03:29:29;;;;;;;6.63;5.77;;;6.30;99.90;;;;;;5113587;28;20176;-78
2021/04/17 03:31:54;;;;;;;5.70;5.00;;;6.30;99.90;;;;;;5113074;28;20174;-78
2021/04/17 03:34:20;;;;;;;7.63;5.53;;;6.30;99.90;;;;;;5114701;28;20189;-78
2021/04/17 03:36:46;;;;;;;8.17;5.90;;;6.30;99.90;;;;;;5113395;28;20173;-77
2021/04/17 03:39:11;;;;;;;9.03;5.37;;;6.30;99.90;;;;;;5130024;27;20181;-78
2021/04/17 03:41:37;;;;;;;18.90;6.37;;;6.20;99.90;;;;;;5114203;28;20189;-78
2021/04/17 03:44:04;;;;;;;8.87;6.17;;;6.20;99.90;;;;;;5114367;28;20507;-78
2021/04/17 03:46:30;;;;;;;10.23;6.20;;;6.20;99.90;;;;;;5114534;28;20272;-78
2021/04/17 03:48:55;;;;;;;7.27;6.13;;;6.10;99.90;;;;;;5114144;28;20633;-78
2021/04/17 03:51:21;;;;;;;9.73;6.30;;;6.10;99.90;;;;;;5113250;28;20177;-78
2021/04/17 03:53:47;;;;;;;15.20;6.03;;;6.20;99.90;;;;;;5114251;28;20244;-78
2021/04/17 03:56:13;;;;;;;8.30;5.50;;;6.10;99.90;;;;;;5113294;28;20176;-78
2021/04/17 03:58:39;;;;;;;7.30;6.20;;;6.00;99.90;;;;;;5112781;28;20197;-78
2021/04/17 04:01:05;;;;;;;9.73;5.87;;;6.00;99.90;;;;;;5114453;28;20227;-78
2021/04/17 04:03:31;;;;;;;10.77;5.90;;;6.10;99.90;;;;;;5113061;28;20182;-78
2021/04/17 04:05:56;;;;;;;15.90;6.27;;;6.00;99.90;;;;;;5113056;28;20609;-78
2021/04/17 04:08:22;;;;;;;8.07;6.00;;;6.10;99.90;;;;;;5112927;28;20176;-78
2021/04/17 04:10:48;;;;;;;10.23;5.13;;;6.10;99.90;;;;;;5113819;28;20173;-78
2021/04/17 04:13:14;;;;;;;10.83;6.30;;;6.10;99.90;;;;;;5112443;28;20661;-78
2021/04/17 04:15:39;;;;;;;8.27;5.70;;;6.00;99.90;;;;;;5112615;28;20165;-78
2021/04/17 04:18:05;;;;;;;12.37;5.83;;;6.00;99.90;;;;;;5112485;28;20169;-78
2021/04/17 04:20:31;;;;;;;10.27;6.50;;;5.90;99.90;;;;;;5112979;28;20201;-78
2021/04/17 04:23:02;;;;;;;11.80;6.27;;;5.80;99.90;;;;;;5112841;28;20181;-78
2021/04/17 04:25:27;;;;;;;12.03;6.20;;;5.80;99.90;;;;;;5114170;28;20157;-78
2021/04/17 04:27:53;;;;;;;11.03;6.33;;;5.70;99.90;;;;;;5112329;28;20173;-78
2021/04/17 04:30:19;;;;;;;8.63;6.23;;;5.80;99.90;;;;;;5113301;28;20177;-78
2021/04/17 04:32:45;;;;;;;10.13;6.63;;;5.70;99.90;;;;;;5114078;28;20239;-78
2021/04/17 04:35:11;;;;;;;10.93;6.53;;;5.70;99.90;;;;;;5095935;28;20170;-78
2021/04/17 04:37:37;;;;;;;12.53;6.33;;;5.70;99.90;;;;;;5113608;28;20166;-78
2021/04/17 04:40:07;;;;;;;13.00;7.00;;;5.60;99.90;;;;;;5103388;28;20656;-77
2021/04/17 04:42:33;;;;;;;14.73;6.67;;;5.70;99.90;;;;;;5113650;28;20161;-78
2021/04/17 04:45:03;;;;;;;10.27;6.10;;;5.60;99.90;;;;;;5113915;28;20170;-78
2021/04/17 04:47:29;;;;;;;6.87;6.07;;;5.50;99.90;;;;;;5112266;28;20214;-78
2021/04/17 04:49:55;;;;;;;11.93;5.60;;;5.40;99.90;;;;;;5112421;28;20181;-77
2021/04/17 04:52:21;;;;;;;9.23;6.23;;;5.40;99.90;;;;;;5095585;28;20174;-78
2021/04/17 04:54:47;;;;;;;7.50;6.23;;;5.40;99.90;;;;;;5113383;28;20621;-78
2021/04/17 04:57:12;;;;;;;9.03;6.40;;;5.40;99.90;;;;;;5113852;28;20193;-77
2021/04/17 04:59:38;;;;;;;10.10;6.20;;;5.40;99.90;;;;;;5091958;28;20272;-78
2021/04/17 05:02:04;;;;;;;11.97;6.30;;;5.40;99.90;;;;;;5109012;28;20216;-78
2021/04/17 05:04:30;;;;;;;6.77;5.37;;;5.50;99.90;;;;;;5093326;28;20166;-78
2021/04/17 05:06:56;;;;;;;10.87;6.13;;;5.50;99.90;;;;;;5109042;28;20170;-77
2021/04/17 05:09:22;;;;;;;8.57;5.83;;;5.40;99.90;;;;;;5111636;28;20268;-78
2021/04/17 05:11:47;;;;;;;11.13;6.27;;;5.40;99.90;;;;;;5112342;28;20208;-78
2021/04/17 05:14:13;;;;;;;9.27;6.40;;;5.50;99.90;;;;;;5113522;28;20229;-78
2021/04/17 05:16:39;;;;;;;11.33;6.83;;;5.60;99.90;;;;;;5095236;28;20184;-78
2021/04/17 05:19:04;;;;;;;8.83;6.10;;;5.70;99.90;;;;;;5111799;28;20536;-78
2021/04/17 05:21:30;;;;;;;9.03;6.70;;;5.80;99.90;;;;;;5113375;28;20184;-77
2021/04/17 05:23:56;;;;;;;11.53;6.73;;;5.90;99.90;;;;;;5117273;28;20252;-78
2021/04/17 05:26:22;;;;;;;12.03;6.33;;;5.90;99.90;;;;;;5116327;28;20261;-78
2021/04/17 05:28:48;;;;;;;15.27;7.13;;;6.00;99.90;;;;;;5115703;28;20180;-78
2021/04/17 05:31:14;;;;;;;12.47;6.13;;;6.10;99.90;;;;;;5116030;28;20170;-77
2021/04/17 05:33:39;;;;;;;10.60;6.23;;;6.20;99.90;;;;;;5116705;28;20669;-78
2021/04/17 05:36:05;;;;;;;16.67;6.53;;;6.30;99.90;;;;;;5115927;28;20169;-78
2021/04/17 05:38:31;;;;;;;13.03;6.90;;;6.30;99.90;;;;;;5115046;28;20175;-78
2021/04/17 05:40:56;;;;;;;12.97;6.83;;;6.30;99.90;;;;;;5115463;28;20238;-78
2021/04/17 05:43:22;;;;;;;13.33;6.70;;;6.40;99.90;;;;;;5115745;28;20536;-78
2021/04/17 05:45:48;;;;;;;10.07;6.43;;;6.50;99.90;;;;;;5115753;28;20634;-78
2021/04/17 05:48:14;;;;;;;12.63;6.53;;;6.70;99.90;;;;;;5116696;28;20174;-78
2021/04/17 05:50:40;;;;;;;8.73;6.37;;;6.90;99.90;;;;;;5115133;28;20257;-78
2021/04/17 05:53:06;;;;;;;11.13;6.03;;;7.10;99.90;;;;;;5116799;28;20706;-78
2021/04/17 05:55:31;;;;;;;13.53;6.97;;;7.30;99.90;;;;;;5115434;28;20165;-78
2021/04/17 05:57:57;;;;;;;10.97;6.23;;;7.50;99.90;;;;;;5116719;28;20170;-78
2021/04/17 06:00:24;;;;;;;10.37;6.20;;;7.70;99.90;;;;;;5116355;28;20174;-78
2021/04/17 06:02:54;;;;;;;11.33;6.00;;;7.90;99.90;;;;;;5115210;27;20225;-78
2021/04/17 06:05:20;;;;;;;10.32;5.85;;;7.80;99.90;;;;;;5115117;28;20169;-78
2021/04/17 06:07:45;;;;;;;16.75;5.13;;;8.10;99.90;;;;;;5098355;28;20678;-78
2021/04/17 06:10:11;;;;;;;12.88;5.25;;;8.30;99.90;;;;;;5115848;28;20193;-78
2021/04/17 06:12:37;;;;;;;9.90;5.75;;;8.10;99.90;;;;;;5114922;28;20216;-78
2021/04/17 06:15:04;;;;;;;5.10;4.53;;;7.80;99.90;;;;;;5116214;28;20235;-78
2021/04/17 06:17:29;;;;;;;10.95;5.82;;;8.00;99.90;;;;;;5116282;28;20162;-78
2021/04/17 06:19:55;;;;;;;10.02;5.57;;;8.00;99.90;;;;;;5114602;28;20172;-77
2021/04/17 06:22:21;;;;;;;9.45;5.32;;;8.00;99.90;;;;;;5114722;28;20247;-76
2021/04/17 06:24:46;;;;;;;6.50;4.57;;;8.00;99.90;;;;;;5116585;28;20242;-76
2021/04/17 06:27:12;;;;;;;8.30;5.70;;;7.40;99.90;;;;;;5115002;28;20170;-77
2021/04/17 06:29:38;;;;;;;10.38;5.22;;;7.60;99.90;;;;;;5115649;28;20576;-76
2021/04/17 06:32:04;;;;;;;5.75;4.90;;;7.70;99.90;;;;;;5114538;28;20189;-76
2021/04/17 06:34:30;;;;;;;10.75;4.95;;;7.70;99.90;;;;;;5114493;28;20208;-76
2021/04/17 06:36:56;;;;;;;8.10;4.93;;;7.70;99.90;;;;;;5114790;28;20169;-77
2021/04/17 06:39:22;;;;;;;5.78;4.78;;;8.10;99.90;;;;;;5115356;28;20226;-76
2021/04/17 06:41:51;;;;;;;7.05;5.20;;;8.10;99.90;;;;;;5114142;28;20161;-77
2021/04/17 06:44:17;;;;;;;6.50;4.60;;;8.50;99.90;;;;;;5114501;28;20238;-76
2021/04/17 06:46:44;;;;;;;8.77;5.07;;;8.70;99.90;;;;;;5114174;28;20177;-78
2021/04/17 06:49:10;;;;;;;7.88;4.97;;;8.50;99.90;;;;;;5114255;28;20169;-75
2021/04/17 06:51:38;;;;;;;6.03;4.38;;;8.20;99.90;;;;;;5115612;28;20203;-77
2021/04/17 06:54:09;;;;;;;15.63;4.70;;;8.60;99.90;;;;;;5114177;28;20200;-75
2021/04/17 06:56:35;;;;;;;8.38;4.78;;;9.70;99.90;;;;;;5115417;28;20629;-75
2021/04/17 06:59:03;;;;;;;9.05;4.22;;;10.90;99.90;;;;;;5115591;28;20169;-76
2021/04/17 07:01:30;;;;;;;11.02;4.85;;;11.80;99.90;;;;;;5115304;28;20157;-76
2021/04/17 07:03:58;;;;;;;6.07;4.30;;;12.30;99.90;;;;;;5115536;28;20177;-76
2021/04/17 07:06:24;;;;;;;6.53;4.13;;;13.20;99.90;;;;;;5114098;28;20172;-78
2021/04/17 07:08:50;;;;;;;7.97;4.35;;;15.00;99.90;;;;;;5114904;28;20169;-77
2021/04/17 07:11:16;;;;;;;8.00;4.25;;;17.40;99.90;;;;;;5113753;28;20260;-78
2021/04/17 07:14:13;;;;;;;5.25;4.28;;;19.20;99.30;;;;;;5115111;28;20203;-79
2021/04/17 07:16:56;;;;;;;9.73;4.57;;;19.50;95.80;;;;;;5094699;28;20554;-77
2021/04/17 07:19:23;;;;;;;7.07;4.53;;;19.90;94.00;;;;;;5094790;28;20197;-76
2021/04/17 07:21:50;;;;;;;6.45;4.15;;;19.20;93.70;;;;;;5093645;28;20220;-77
2021/04/17 07:24:26;;;;;;;9.05;4.20;;;19.00;94.20;;;;;;5097775;28;20238;-77
2021/04/17 07:26:53;;;;;;;5.53;3.53;;;19.10;94.50;;;;;;5113681;28;20173;-77
2021/04/17 07:29:19;;;;;;;6.53;4.40;;;19.20;93.60;;;;;;5114874;28;20165;-76
2021/04/17 07:31:55;;;;;;;9.10;4.30;;;17.60;94.30;;;;;;5114639;28;20161;-77
2021/04/17 07:34:25;;;;;;;7.78;4.20;;;16.70;96.10;;;;;;5114560;28;20197;-76
2021/04/17 07:36:53;;;;;;;9.15;4.30;;;16.70;96.20;;;;;;5114724;28;20161;-78
2021/04/17 07:39:27;;;;;;;10.15;4.55;;;16.10;97.30;;;;;;5113095;28;20162;-77
2021/04/17 07:41:59;;;;;;;5.80;4.35;;;17.20;96.70;;;;;;5114478;28;20161;-76
2021/04/17 07:44:33;;;;;;;5.53;3.60;;;18.00;94.40;;;;;;5112497;28;20162;-77
2021/04/17 07:46:59;;;;;;;5.45;3.80;;;18.70;94.80;;;;;;5112993;28;20791;-76
2021/04/17 07:49:26;;;;;;;5.70;3.65;;;20.80;93.20;;;;;;5113234;28;20268;-77
2021/04/17 07:52:11;;;;;;;7.53;3.97;;;21.00;90.10;;;;;;5113133;28;20191;-76
2021/04/17 07:54:53;;;;;;;5.88;3.75;;;20.70;89.90;;;;;;5114285;28;20169;-76
2021/04/17 07:57:19;;;;;;;6.63;3.95;;;21.10;90.40;;;;;;5112834;28;20533;-77
2021/04/17 07:59:46;;;;;;;6.60;3.83;;;20.70;89.20;;;;;;5114235;28;20161;-76
2021/04/17 08:02:14;;;;;;;5.03;4.07;;;20.80;89.50;;;;;;5111659;28;20234;-76
2021/04/17 08:04:40;;;;;;;9.77;4.10;;;20.20;88.10;;;;;;5110229;28;20177;-76
2021/04/17 08:07:07;;;;;;;8.77;4.10;;;20.90;88.00;;;;;;5114044;28;20157;-76
2021/04/17 08:09:33;;;;;;;4.68;3.22;;;19.80;88.50;;;;;;5112646;28;20170;-75
2021/04/17 08:12:00;;;;;;;6.35;3.60;;;21.00;89.20;;;;;;5114048;28;20580;-76
2021/04/17 08:14:28;;;;;;;8.48;3.60;;;23.10;86.80;;;;;;5112794;28;20554;-77
2021/04/17 08:16:54;;;;;;;7.65;3.85;;;23.70;81.00;;;;;;5113828;28;20677;-76
2021/04/17 08:19:21;;;;;;;9.07;3.50;;;22.00;82.50;;;;;;5113237;28;20260;-76
2021/04/17 08:21:48;;;;;;;5.13;3.60;;;21.30;81.80;;;;;;5114009;28;20161;-76
2021/04/17 08:24:19;;;;;;;5.88;3.40;;;21.40;84.70;;;;;;5094364;28;20189;-77
2021/04/17 08:26:45;;;;;;;12.02;4.25;;;22.00;83.30;;;;;;5124956;27;20176;-76
2021/04/17 08:29:11;;;;;;;6.30;4.03;;;22.40;80.80;;;;;;5113815;28;20169;-76
2021/04/17 08:31:38;;;;;;;5.70;3.78;;;22.00;82.00;;;;;;5113630;28;20581;-76
2021/04/17 08:34:08;;;;;;;5.75;3.67;;;23.00;81.20;;;;;;5113661;28;20282;-76
2021/04/17 08:36:42;;;;;;;8.23;2.95;;;22.40;79.60;;;;;;5093320;28;20610;-76
2021/04/17 08:39:34;;;;;;;5.43;3.83;;;21.00;80.70;;;;;;5092235;28;20169;-75
2021/04/17 08:42:14;;;;;;;9.05;3.42;;;22.10;82.60;;;;;;5104666;28;20166;-76
2021/04/17 08:44:42;;;;;;;6.45;3.58;;;23.70;77.10;;;;;;5132794;27;20635;-77
2021/04/17 08:47:11;;;;;;;6.25;2.80;;;25.20;74.80;;;;;;5134389;27;20196;-76
2021/04/17 08:49:41;;;;;;;5.03;3.08;;;23.80;76.20;;;;;;5093494;28;20161;-75
2021/04/17 08:52:19;;;;;;;5.05;2.85;;;25.20;74.40;;;;;;5102225;28;20192;-75
2021/04/17 08:55:05;;;;;;;3.38;2.97;;;25.40;70.40;;;;;;5108451;28;20539;-77
2021/04/17 08:57:31;;;;;;;4.82;3.20;;;25.10;72.20;;;;;;5100457;28;20230;-76
2021/04/17 08:59:59;;;;;;;7.40;3.00;;;26.80;70.10;;;;;;5116630;28;20686;-76
2021/04/17 09:02:26;;;;;;;5.88;2.75;;;26.90;66.90;;;;;;5116186;28;20204;-76
2021/04/17 09:05:10;;;;;;;3.45;2.60;;;25.20;68.50;;;;;;5117348;28;20222;-77
2021/04/17 09:07:40;;;;;;;4.07;3.15;;;22.90;73.80;;;;;;5117883;28;20173;-76
2021/04/17 09:10:32;;;;;;;5.80;3.13;;;22.90;73.90;;;;;;5117770;28;20158;-76
2021/04/17 09:13:10;;;;;;;3.97;2.95;;;22.50;74.40;;;;;;5116046;28;20229;-76
2021/04/17 09:15:59;;;;;;;10.88;3.78;;;24.40;71.70;;;;;;5131892;27;20172;-77
2021/04/17 09:18:46;;;;;;;5.65;3.10;;;24.90;71.90;;;;;;5118516;27;20184;-77
2021/04/17 09:21:14;;;;;;;2.85;2.55;;;24.70;69.20;;;;;;5102094;28;20211;-76
2021/04/17 09:23:44;;;;;;;7.55;2.63;;;22.30;71.70;;;;;;5106141;28;20173;-76
2021/04/17 09:26:29;;;;;;;4.63;2.95;;;21.90;73.30;;;;;;5116103;28;20253;-76
2021/04/17 09:28:56;;;;;;;4.05;3.40;;;21.40;74.20;;;;;;5104909;28;20956;-77
2021/04/17 09:31:22;;;;;;;4.43;2.92;;;23.20;72.60;;;;;;5095241;28;20257;-76
2021/04/17 09:33:57;;;;;;;4.22;2.67;;;24.70;69.80;;;;;;5094962;28;20301;-76
2021/04/17 09:36:22;;;;;;;4.57;2.85;;;26.10;70.00;;;;;;5096550;28;20241;-76
2021/04/17 09:38:48;;;;;;;3.78;2.40;;;27.10;67.00;;;;;;5102735;28;20743;-75
2021/04/17 09:41:14;;;;;;;3.22;2.83;;;25.90;63.30;;;;;;5115480;28;20585;-76
2021/04/17 09:43:40;;;;;;;4.90;3.13;;;24.00;68.70;;;;;;5109672;28;20637;-76
2021/04/17 09:46:15;;;;;;;6.50;3.05;;;23.30;69.00;;;;;;5098757;28;20623;-77
2021/04/17 09:48:42;;;;;;;5.10;2.25;;;24.70;67.90;;;;;;5107225;28;20169;-76
2021/04/17 09:51:21;;;;;;;4.57;2.78;;;25.20;65.20;;;;;;5103874;27;20174;-77
2021/04/17 09:53:49;;;;;;;3.70;2.90;;;25.20;64.90;;;;;;5133654;27;20287;-76
2021/04/17 09:56:30;;;;;;;5.38;2.72;;;24.50;64.50;;;;;;5116478;28;20173;-76
2021/04/17 09:59:05;;;;;;;4.60;2.83;;;25.80;65.50;;;;;;5113030;28;20171;-77
2021/04/17 10:01:31;;;;;;;4.22;2.50;;;25.50;63.30;;;;;;5115630;28;20212;-77
2021/04/17 10:03:59;;;;;;;4.95;2.83;;;25.70;61.40;;;;;;5115219;28;20563;-76
2021/04/17 10:06:30;;;;;;;3.05;2.40;;;22.90;69.10;;;;;;5115738;28;20189;-76
2021/04/17 10:09:06;;;;;;;14.55;2.70;;;24.40;65.50;;;;;;5113000;28;20212;-77
2021/04/17 10:11:32;;;;;;;5.50;2.83;;;23.20;65.30;;;;;;5116573;28;20153;-75
2021/04/17 10:13:58;;;;;;;3.70;2.58;;;20.70;71.70;;;;;;5114363;28;20251;-76
2021/04/17 10:16:31;;;;;;;3.00;2.40;;;22.70;68.00;;;;;;5116018;28;20173;-76
2021/04/17 10:18:57;;;;;;;4.68;2.55;;;24.10;65.60;;;;;;5108834;28;20174;-76
2021/04/17 10:21:25;;;;;;;5.78;2.30;;;24.10;63.60;;;;;;5093067;28;20170;-76
2021/04/17 10:24:16;;;;;;;2.60;2.05;;;24.20;65.90;;;;;;5105137;28;20181;-76
2021/04/17 10:27:08;;;;;;;2.80;2.50;;;23.40;64.90;;;;;;5101970;28;20193;-76
2021/04/17 10:29:45;;;;;;;2.95;2.60;;;19.00;72.10;;;;;;5095599;28;20618;-76
2021/04/17 10:32:17;;;;;;;3.90;2.80;;;17.80;75.50;;;;;;5108384;28;20274;-76
2021/04/17 10:35:03;;;;;;;3.15;2.63;;;19.40;74.30;;;;;;5135221;27;20202;-76
2021/04/17 10:37:45;;;;;;;4.45;2.92;;;21.40;70.10;;;;;;5135020;27;20509;-77
2021/04/17 10:40:15;;;;;;;3.55;2.60;;;22.30;67.70;;;;;;5112713;28;20172;-76
2021/04/17 10:42:53;;;;;;;4.97;3.00;;;21.60;68.10;;;;;;5107506;28;20538;-75
2021/04/17 10:45:22;;;;;;;5.65;2.38;;;22.00;68.90;;;;;;5095377;28;20154;-75
2021/04/17 10:48:02;;;;;;;3.42;2.63;;;23.00;68.40;;;;;;5110202;28;20188;-76
2021/04/17 10:50:33;;;;;;;3.53;2.38;;;26.30;63.70;;;;;;5110873;28;20176;-78
2021/04/17 10:53:07;;;;;;;4.78;2.88;;;27.10;61.40;;;;;;5108471;28;20193;-75
2021/04/17 10:55:43;;;;;;;2.30;2.10;;;27.60;61.90;;;;;;5107279;28;20165;-75
2021/04/17 10:58:31;;;;;;;2.80;2.55;;;28.60;58.70;;;;;;5103965;28;20237;-75
2021/04/17 11:01:21;;;;;;;2.90;2.55;;;25.40;59.90;;;;;;5115255;28;20310;-75
2021/04/17 11:03:49;;;;;;;2.80;2.38;;;23.70;63.70;;;;;;5094645;28;20178;-75
2021/04/17 11:06:18;;;;;;;5.38;2.67;;;24.80;62.10;;;;;;5108736;28;20173;-75
2021/04/17 11:08:45;;;;;;;2.65;2.45;;;26.10;61.40;;;;;;5101037;28;20630;-76
2021/04/17 11:11:17;;;;;;;5.18;2.83;;;25.90;60.10;;;;;;5094735;28;20241;-75
2021/04/17 11:13:45;;;;;;;4.22;2.80;;;23.30;63.20;;;;;;5097761;28;20197;-76
2021/04/17 11:16:12;;;;;;;5.68;3.33;;;22.60;66.30;;;;;;5114590;27;20173;-75
2021/04/17 11:18:43;;;;;;;2.85;2.53;;;22.30;66.00;;;;;;5104810;28;20169;-77
2021/04/17 11:21:12;;;;;;;3.45;2.72;;;22.50;66.40;;;;;;5092438;28;20178;-78
2021/04/17 11:23:44;;;;;;;6.18;2.72;;;25.20;64.00;;;;;;5103793;28;20242;-77
2021/04/17 11:26:17;;;;;;;2.70;2.50;;;25.60;59.70;;;;;;5113849;28;20162;-77
2021/04/17 11:28:52;;;;;;;3.38;3.08;;;22.50;62.70;;;;;;5113061;28;20158;-76
2021/04/17 11:31:24;;;;;;;5.53;2.72;;;22.10;64.40;;;;;;5113359;28;20256;-77
2021/04/17 11:33:52;;;;;;;5.80;3.03;;;22.60;65.50;;;;;;5113333;28;20209;-77
2021/04/17 11:36:19;;;;;;;4.55;2.80;;;24.60;62.60;;;;;;5112801;28;20165;-78
2021/04/17 11:38:44;;;;;;;3.50;2.40;;;23.90;63.40;;;;;;5110702;28;20188;-77
2021/04/17 11:41:10;;;;;;;4.50;3.38;;;20.80;65.70;;;;;;5103873;28;20621;-76
2021/04/17 11:43:36;;;;;;;4.43;2.97;;;20.20;70.10;;;;;;5113531;28;20172;-76
2021/04/17 11:46:02;;;;;;;4.78;2.80;;;19.90;70.70;;;;;;5111000;28;20182;-76
2021/04/17 11:48:28;;;;;;;2.97;2.72;;;21.70;69.50;;;;;;5102367;28;20173;-76
2021/04/17 11:50:53;;;;;;;3.83;2.67;;;22.50;65.50;;;;;;5099299;28;20173;-76
2021/04/17 11:53:20;;;;;;;3.45;2.92;;;24.10;62.70;;;;;;5113257;28;20212;-77
2021/04/17 11:55:48;;;;;;;7.28;3.15;;;22.70;62.80;;;;;;5111447;28;20161;-78
2021/04/17 11:58:13;;;;;;;6.05;2.72;;;22.20;66.60;;;;;;5103808;28;20182;-76
2021/04/17 12:00:39;;;;;;;3.38;2.85;;;23.90;64.10;;;;;;5110988;28;20175;-77
2021/04/17 12:03:05;;;;;;;4.80;2.47;;;22.80;65.60;;;;;;5108539;28;20255;-77
2021/04/17 12:05:31;;;;;;;5.70;3.50;;;20.70;68.10;;;;;;5102726;28;20180;-77
2021/04/17 12:07:56;;;;;;;3.70;3.30;;;20.80;69.10;;;;;;5094559;28;20170;-76
2021/04/17 12:10:22;;;;;;;5.30;3.00;;;22.30;66.90;;;;;;5096695;28;20256;-76
2021/04/17 12:12:48;;;;;;;4.93;3.08;;;22.70;65.40;;;;;;5112070;28;20286;-76
2021/04/17 12:15:15;;;;;;;7.13;3.17;;;21.20;67.40;;;;;;5114135;28;20295;-76
2021/04/17 12:17:41;;;;;;;4.43;2.33;;;23.00;64.80;;;;;;5111437;28;20647;-76
2021/04/17 12:20:08;;;;;;;4.82;3.42;;;22.80;65.40;;;;;;5117158;27;20177;-77
2021/04/17 12:22:34;;;;;;;4.63;2.60;;;22.90;65.30;;;;;;5117398;27;20214;-76
2021/04/17 12:24:59;;;;;;;4.57;3.08;;;23.80;64.50;;;;;;5111375;28;20248;-77
2021/04/17 12:27:25;;;;;;;7.25;2.75;;;22.70;63.80;;;;;;5104384;28;20180;-77
2021/04/17 12:29:51;;;;;;;3.15;2.85;;;24.00;61.90;;;;;;5097941;28;20256;-76
2021/04/17 12:32:17;;;;;;;5.28;2.55;;;23.10;65.30;;;;;;5094444;28;20277;-76
2021/04/17 12:34:43;;;;;;;6.30;2.78;;;21.50;66.40;;;;;;5108387;28;20589;-76
2021/04/17 12:37:08;;;;;;;9.80;3.10;;;20.20;70.40;;;;;;5101949;28;20482;-77
2021/04/17 12:39:34;;;;;;;3.70;2.38;;;19.10;72.60;;;;;;5094444;28;20235;-77
2021/04/17 12:42:00;;;;;;;5.20;2.72;;;18.80;72.40;;;;;;5112610;28;20272;-77
2021/04/17 12:44:26;;;;;;;6.93;3.20;;;18.60;73.50;;;;;;5107726;28;20183;-76
2021/04/17 12:46:52;;;;;;;2.90;2.42;;;18.30;71.90;;;;;;5125606;27;20634;-77
2021/04/17 12:49:18;;;;;;;6.45;2.55;;;17.80;72.80;;;;;;5091788;28;20180;-76
2021/04/17 12:51:43;;;;;;;13.50;2.83;;;17.80;73.60;;;;;;5096972;28;20252;-77
2021/04/17 12:54:09;;;;;;;3.20;2.90;;;17.30;76.50;;;;;;5091986;28;20202;-77
2021/04/17 12:56:34;;;;;;;3.22;2.78;;;17.40;75.40;;;;;;5091797;28;20193;-77
2021/04/17 12:59:00;;;;;;;3.10;2.80;;;16.90;76.80;;;;;;5093926;28;20173;-77